^^
Datos históricos de la estación: Murcia-Puente Tocinos
Diario Informe para Junio 29, 2019 Unidades:  Ambas    Ingés   Métrico
Diario Semanal Mensual Anual
  Máxima: Mínima: Promedio:
Temperatura: 65.1 °F /  18.4 °C 52.2 °F /  11.2 °C 57.6 °F /  14.2 °C
Punto de rocio: 41 °F /  5 °C 37.2 °F /  2.9 °C 38.8 °F /  3.8 °C
Humedad: 59.7% 41% 50%
Velocidad viento: 11.2mph /  18km/h - 4.1mph /  6.6km/h
Racha viento: 22mph /  35.4km/h - -
Viento- - SSO
Presión: 30 in /  1015.2 hPa 29.8 in /  1009.2 hPa -
Precipitación: 0 in /  0.0 mm    
 
 
Tabla de datos para Junio 29, 2019
Hora Temperatura Punto de rocio Presión Viento Velocidad viento Racha viento Humedad Intensidad lluvia(por hora) Nubes
00:04 57.7 °F /  14.3 °C 37.4 °F /  3 °C 30in /  1014.4hPa OSO 5.9mph /  9.5km/h 13.5mph /  21.7km/h 46.6% 0in /  0.0mm
00:09 57.7 °F /  14.3 °C 37.6 °F /  3.1 °C 30in /  1014.4hPa OSO 5.6mph /  9km/h 13mph /  20.9km/h 47% 0in /  0.0mm
00:14 57.9 °F /  14.4 °C 37.8 °F /  3.2 °C 30in /  1014.4hPa OSO 5.4mph /  8.7km/h 9.2mph /  14.8km/h 47% 0in /  0.0mm
00:19 57.7 °F /  14.3 °C 37.6 °F /  3.1 °C 30in /  1014.5hPa OSO 5.4mph /  8.7km/h 9.2mph /  14.8km/h 47% 0in /  0.0mm
00:24 57.7 °F /  14.3 °C 37.6 °F /  3.1 °C 30in /  1014.5hPa OSO 5.4mph /  8.7km/h 8mph /  12.9km/h 47% 0in /  0.0mm
00:29 57.6 °F /  14.2 °C 37.6 °F /  3.1 °C 30in /  1014.5hPa SSO 4.1mph /  6.6km/h 6mph /  9.7km/h 47.1% 0in /  0.0mm
00:34 57.4 °F /  14.1 °C 37.4 °F /  3 °C 30in /  1014.8hPa SSE 3.1mph /  5km/h 5.2mph /  8.4km/h 47.3% 0in /  0.0mm
00:39 56.3 °F /  13.5 °C 37.2 °F /  2.9 °C 30in /  1014.8hPa Este 3.1mph /  5km/h 6.9mph /  11.1km/h 48.6% 0in /  0.0mm
00:44 55.4 °F /  13 °C 37.2 °F /  2.9 °C 30in /  1014.8hPa ESE 3.1mph /  5km/h 8.1mph /  13km/h 50.4% 0in /  0.0mm
00:49 55.2 °F /  12.9 °C 37.4 °F /  3 °C 30in /  1015.0hPa ESE 4.3mph /  6.9km/h 9.7mph /  15.6km/h 51% 0in /  0.0mm
00:54 55.6 °F /  13.1 °C 37.6 °F /  3.1 °C 30in /  1015.0hPa ESE 5.2mph /  8.4km/h 10.2mph /  16.4km/h 51% 0in /  0.0mm
00:59 56.3 °F /  13.5 °C 37.9 °F /  3.3 °C 30in /  1015.0hPa ESE 6.3mph /  10.1km/h 12.7mph /  20.4km/h 50.1% 0in /  0.0mm
01:04 57.2 °F /  14 °C 38.1 °F /  3.4 °C 30in /  1015.0hPa ESE 6.9mph /  11.1km/h 13mph /  20.9km/h 48.8% 0in /  0.0mm
01:09 57.7 °F /  14.3 °C 38.1 °F /  3.4 °C 30in /  1015.0hPa ESE 6.3mph /  10.2km/h 12mph /  19.3km/h 48% 0in /  0.0mm
01:14 57.7 °F /  14.3 °C 38.3 °F /  3.5 °C 30in /  1015.0hPa SE 5.9mph /  9.5km/h 7mph /  11.3km/h 48% 0in /  0.0mm
01:19 58.1 °F /  14.5 °C 38.3 °F /  3.5 °C 30in /  1015.0hPa SSE 4.6mph /  7.4km/h 9.2mph /  14.8km/h 47.6% 0in /  0.0mm
01:24 58.5 °F /  14.7 °C 38.3 °F /  3.5 °C 30in /  1015.0hPa ESE 3.6mph /  5.8km/h 9mph /  14.5km/h 47% 0in /  0.0mm
01:29 58.5 °F /  14.7 °C 38.3 °F /  3.5 °C 30in /  1015.0hPa SE 3.3mph /  5.3km/h 6.9mph /  11.1km/h 47% 0in /  0.0mm
01:34 58.5 °F /  14.7 °C 38.3 °F /  3.5 °C 30in /  1015.1hPa SSO 3.1mph /  5km/h 7mph /  11.3km/h 47% 0in /  0.0mm
01:39 58.5 °F /  14.7 °C 38.1 °F /  3.4 °C 30in /  1015.1hPa SSE 3.1mph /  5km/h 7.4mph /  11.9km/h 47% 0in /  0.0mm
01:44 58.5 °F /  14.7 °C 38.3 °F /  3.5 °C 30in /  1015.1hPa SSO 3.1mph /  5km/h 7mph /  11.3km/h 47% 0in /  0.0mm
01:49 58.5 °F /  14.7 °C 38.3 °F /  3.5 °C 30in /  1015.1hPa SSO 3.8mph /  6.1km/h 6.9mph /  11.1km/h 47% 0in /  0.0mm
01:54 58.3 °F /  14.6 °C 38.3 °F /  3.5 °C 30in /  1015.1hPa SSO 4.3mph /  6.9km/h 8.1mph /  13km/h 47.3% 0in /  0.0mm
01:59 58.3 °F /  14.6 °C 38.5 °F /  3.6 °C 30in /  1015.1hPa Sur 4.3mph /  6.9km/h 8.5mph /  13.7km/h 47.8% 0in /  0.0mm
02:04 58.3 °F /  14.6 °C 38.1 °F /  3.4 °C 30in /  1015.1hPa SSO 4.3mph /  6.9km/h 9mph /  14.5km/h 47% 0in /  0.0mm
02:09 58.3 °F /  14.6 °C 38.3 °F /  3.5 °C 30in /  1015.1hPa SO 4.3mph /  6.9km/h 8mph /  12.9km/h 47.3% 0in /  0.0mm
02:14 58.3 °F /  14.6 °C 38.3 °F /  3.5 °C 30in /  1015.1hPa SSO 4.3mph /  6.9km/h 6mph /  9.7km/h 47.2% 0in /  0.0mm
02:19 58.3 °F /  14.6 °C 38.5 °F /  3.6 °C 30in /  1015.1hPa SO 3.9mph /  6.3km/h 6.2mph /  10km/h 47.8% 0in /  0.0mm
02:24 58.3 °F /  14.6 °C 38.7 °F /  3.7 °C 30in /  1015.1hPa Sur 3.6mph /  5.8km/h 6mph /  9.7km/h 48% 0in /  0.0mm
02:29 57.9 °F /  14.4 °C 38.3 °F /  3.5 °C 30in /  1015.1hPa Sur 3.3mph /  5.3km/h 6.2mph /  10km/h 48% 0in /  0.0mm
02:34 57.7 °F /  14.3 °C 38.3 °F /  3.5 °C 30in /  1015.1hPa SSO 3.1mph /  5km/h 6mph /  9.7km/h 48% 0in /  0.0mm
02:39 57.7 °F /  14.3 °C 38.1 °F /  3.4 °C 30in /  1015.0hPa Sur 3.4mph /  5.4km/h 6.9mph /  11.1km/h 48.2% 0in /  0.0mm
02:44 57.4 °F /  14.1 °C 38.3 °F /  3.5 °C 30in /  1015.0hPa SSO 3.6mph /  5.8km/h 7mph /  11.3km/h 49% 0in /  0.0mm
02:49 57 °F /  13.9 °C 38.1 °F /  3.4 °C 30in /  1015.0hPa Sur 3.9mph /  6.2km/h 7mph /  11.3km/h 49% 0in /  0.0mm
02:54 57.2 °F /  14 °C 38.1 °F /  3.4 °C 30in /  1015.0hPa SSO 4mph /  6.5km/h 6mph /  9.7km/h 49% 0in /  0.0mm
02:59 57.4 °F /  14.1 °C 38.5 °F /  3.6 °C 30in /  1015.0hPa SO 4mph /  6.5km/h 6mph /  9.7km/h 49% 0in /  0.0mm
03:04 57.4 °F /  14.1 °C 38.5 °F /  3.6 °C 30in /  1015.0hPa SO 4mph /  6.5km/h 6.2mph /  10km/h 49% 0in /  0.0mm
03:09 57.4 °F /  14.1 °C 38.1 °F /  3.4 °C 30in /  1015.0hPa OSO 3.4mph /  5.5km/h 8.1mph /  13km/h 48.5% 0in /  0.0mm
03:14 57.4 °F /  14.1 °C 37.8 °F /  3.2 °C 30in /  1015.0hPa Oeste 2.9mph /  4.7km/h 8.1mph /  13km/h 48% 0in /  0.0mm
03:19 57.4 °F /  14.1 °C 37.8 °F /  3.2 °C 30in /  1015.0hPa ONO 4.3mph /  6.9km/h 10.4mph /  16.7km/h 48% 0in /  0.0mm
03:24 57.2 °F /  14 °C 37.9 °F /  3.3 °C 30in /  1015.0hPa Oeste 5.4mph /  8.7km/h 10mph /  16.1km/h 48.6% 0in /  0.0mm
03:29 56.8 °F /  13.8 °C 37.9 °F /  3.3 °C 30in /  1015.0hPa Oeste 5.4mph /  8.7km/h 10.4mph /  16.7km/h 49% 0in /  0.0mm
03:34 56.7 °F /  13.7 °C 37.9 °F /  3.3 °C 30in /  1015.1hPa Oeste 5.4mph /  8.7km/h 10mph /  16.1km/h 49.4% 0in /  0.0mm
03:39 56.5 °F /  13.6 °C 37.9 °F /  3.3 °C 30in /  1015.1hPa Oeste 5.3mph /  8.5km/h 10mph /  16.1km/h 50% 0in /  0.0mm
03:44 56.1 °F /  13.4 °C 37.8 °F /  3.2 °C 30in /  1015.1hPa Oeste 5.2mph /  8.4km/h 8mph /  12.9km/h 50% 0in /  0.0mm
03:49 55.8 °F /  13.2 °C 37.9 °F /  3.3 °C 30in /  1015.1hPa Oeste 4mph /  6.5km/h 6mph /  9.7km/h 51% 0in /  0.0mm
03:54 55.6 °F /  13.1 °C 37.8 °F /  3.2 °C 30in /  1015.1hPa OSO 3.1mph /  5km/h 5.2mph /  8.4km/h 51% 0in /  0.0mm
03:59 55.6 °F /  13.1 °C 37.8 °F /  3.2 °C 30in /  1015.1hPa SO 3mph /  4.8km/h 5mph /  8km/h 51% 0in /  0.0mm
04:04 55.6 °F /  13.1 °C 37.8 °F /  3.2 °C 30in /  1015.1hPa SO 2.9mph /  4.6km/h 5mph /  8km/h 51% 0in /  0.0mm
04:09 55.6 °F /  13.1 °C 37.8 °F /  3.2 °C 30in /  1014.8hPa SO 2.3mph /  3.7km/h 3mph /  4.8km/h 51% 0in /  0.0mm
04:14 55.4 °F /  13 °C 37.9 °F /  3.3 °C 30in /  1014.8hPa SO 1.8mph /  2.9km/h 3mph /  4.8km/h 51.9% 0in /  0.0mm
04:19 55.2 °F /  12.9 °C 37.9 °F /  3.3 °C 30in /  1014.9hPa SO 1.6mph /  2.5km/h 3mph /  4.8km/h 52% 0in /  0.0mm
04:24 55 °F /  12.8 °C 37.8 °F /  3.2 °C 30in /  1014.9hPa SO 1.4mph /  2.2km/h 2.3mph /  3.7km/h 52% 0in /  0.0mm
04:29 54.9 °F /  12.7 °C 37.8 °F /  3.2 °C 30in /  1014.9hPa SO 1.4mph /  2.2km/h 3.5mph /  5.6km/h 52.5% 0in /  0.0mm
04:34 54.9 °F /  12.7 °C 37.9 °F /  3.3 °C 30in /  1015.0hPa SO 1.4mph /  2.2km/h 4mph /  6.4km/h 53% 0in /  0.0mm
04:39 54.9 °F /  12.7 °C 37.9 °F /  3.3 °C 30in /  1015.0hPa OSO 1.7mph /  2.8km/h 4.6mph /  7.4km/h 53% 0in /  0.0mm
04:44 54.9 °F /  12.7 °C 37.9 °F /  3.3 °C 30in /  1015.0hPa OSO 2mph /  3.2km/h 5.2mph /  8.4km/h 53% 0in /  0.0mm
04:49 54.5 °F /  12.5 °C 37.9 °F /  3.3 °C 30in /  1015.0hPa OSO 2.2mph /  3.6km/h 5.2mph /  8.4km/h 53.4% 0in /  0.0mm
04:54 54.1 °F /  12.3 °C 37.8 °F /  3.2 °C 30in /  1014.8hPa Oeste 2.4mph /  3.9km/h 6.9mph /  11.1km/h 54% 0in /  0.0mm
04:59 54.1 °F /  12.3 °C 37.8 °F /  3.2 °C 30in /  1014.8hPa ONO 3.5mph /  5.7km/h 17.3mph /  27.8km/h 53.8% 0in /  0.0mm
05:04 55.2 °F /  12.9 °C 38.1 °F /  3.4 °C 30in /  1014.8hPa ONO 4.3mph /  6.9km/h 17mph /  27.4km/h 52.5% 0in /  0.0mm
05:09 55.9 °F /  13.3 °C 38.1 °F /  3.4 °C 30in /  1014.7hPa ONO 7.1mph /  11.4km/h 16.1mph /  25.9km/h 51.2% 0in /  0.0mm
05:14 56.1 °F /  13.4 °C 38.1 °F /  3.4 °C 30in /  1014.7hPa ONO 9.2mph /  14.8km/h 18.4mph /  29.6km/h 51% 0in /  0.0mm
05:19 56.1 °F /  13.4 °C 38.1 °F /  3.4 °C 30in /  1014.7hPa ONO 8.3mph /  13.4km/h 18.4mph /  29.6km/h 50.7% 0in /  0.0mm
05:24 56.7 °F /  13.7 °C 38.1 °F /  3.4 °C 30in /  1014.5hPa ONO 7.6mph /  12.2km/h 21.9mph /  35.2km/h 50% 0in /  0.0mm
05:29 56.8 °F /  13.8 °C 37.9 °F /  3.3 °C 30in /  1014.5hPa ONO 9.6mph /  15.5km/h 22mph /  35.4km/h 49.1% 0in /  0.0mm
05:34 56.7 °F /  13.7 °C 38.1 °F /  3.4 °C 30in /  1014.5hPa Oeste 11.2mph /  18km/h 18.4mph /  29.6km/h 49.7% 0in /  0.0mm
05:39 56.5 °F /  13.6 °C 38.1 °F /  3.4 °C 30in /  1014.2hPa OSO 10.1mph /  16.2km/h 18mph /  29km/h 50% 0in /  0.0mm
05:44 55.8 °F /  13.2 °C 37.9 °F /  3.3 °C 30in /  1014.2hPa OSO 9.2mph /  14.8km/h 13mph /  20.9km/h 51% 0in /  0.0mm
05:49 55.2 °F /  12.9 °C 37.9 °F /  3.3 °C 30in /  1014.4hPa OSO 6.9mph /  11.1km/h 9mph /  14.5km/h 52% 0in /  0.0mm
05:54 54.9 °F /  12.7 °C 37.9 °F /  3.3 °C 30in /  1014.4hPa OSO 5.2mph /  8.4km/h 7mph /  11.3km/h 53% 0in /  0.0mm
05:59 54.1 °F /  12.3 °C 37.8 °F /  3.2 °C 30in /  1014.4hPa OSO 4.2mph /  6.7km/h 7.4mph /  11.9km/h 53.8% 0in /  0.0mm
06:04 54 °F /  12.2 °C 37.8 °F /  3.2 °C 30in /  1014.6hPa OSO 3.6mph /  5.8km/h 9.2mph /  14.8km/h 54.3% 0in /  0.0mm
06:09 53.8 °F /  12.1 °C 37.9 °F /  3.3 °C 30in /  1014.6hPa Oeste 4.2mph /  6.7km/h 9mph /  14.5km/h 55% 0in /  0.0mm
06:14 53.4 °F /  11.9 °C 37.6 °F /  3.1 °C 30in /  1014.6hPa OSO 4.7mph /  7.6km/h 7.4mph /  11.9km/h 55% 0in /  0.0mm
06:19 53.4 °F /  11.9 °C 37.9 °F /  3.3 °C 30in /  1014.6hPa SO 4.5mph /  7.2km/h 7mph /  11.3km/h 55.5% 0in /  0.0mm
06:24 53.2 °F /  11.8 °C 37.9 °F /  3.3 °C 30in /  1014.6hPa OSO 4.3mph /  6.9km/h 6.9mph /  11.1km/h 56% 0in /  0.0mm
06:29 53.4 °F /  11.9 °C 38.1 °F /  3.4 °C 30in /  1014.6hPa OSO 4.2mph /  6.7km/h 7mph /  11.3km/h 56% 0in /  0.0mm
06:34 53.4 °F /  11.9 °C 38.1 °F /  3.4 °C 30in /  1014.6hPa OSO 4mph /  6.5km/h 7mph /  11.3km/h 56% 0in /  0.0mm
06:39 53.4 °F /  11.9 °C 38.1 °F /  3.4 °C 30in /  1014.6hPa OSO 3.5mph /  5.6km/h 5.4mph /  8.7km/h 56% 0in /  0.0mm
06:44 53.6 °F /  12 °C 38.1 °F /  3.4 °C 30in /  1014.6hPa SO 3.1mph /  5km/h 6mph /  9.7km/h 55.6% 0in /  0.0mm
06:49 53.8 °F /  12.1 °C 37.9 °F /  3.3 °C 30in /  1014.6hPa SO 3.4mph /  5.4km/h 6mph /  9.7km/h 55% 0in /  0.0mm
06:54 54 °F /  12.2 °C 38.1 °F /  3.4 °C 30in /  1014.6hPa SO 3.6mph /  5.8km/h 5.9mph /  9.5km/h 55% 0in /  0.0mm
06:59 54.1 °F /  12.3 °C 37.9 °F /  3.3 °C 30in /  1014.6hPa OSO 3.6mph /  5.8km/h 6.9mph /  11.1km/h 54.3% 0in /  0.0mm
07:04 54.3 °F /  12.4 °C 37.9 °F /  3.3 °C 30in /  1014.6hPa OSO 3.6mph /  5.8km/h 8.5mph /  13.7km/h 54% 0in /  0.0mm
07:09 54.3 °F /  12.4 °C 38.1 °F /  3.4 °C 30in /  1014.5hPa Oeste 4mph /  6.4km/h 9mph /  14.5km/h 54.1% 0in /  0.0mm
07:14 54.3 °F /  12.4 °C 38.5 °F /  3.6 °C 30in /  1014.5hPa Oeste 4.3mph /  6.9km/h 9.7mph /  15.6km/h 54.7% 0in /  0.0mm
07:19 54.7 °F /  12.6 °C 38.3 °F /  3.5 °C 30in /  1014.5hPa Oeste 5.2mph /  8.4km/h 10.7mph /  17.2km/h 54% 0in /  0.0mm
07:24 54.5 °F /  12.5 °C 38.3 °F /  3.5 °C 30in /  1014.5hPa Oeste 5.9mph /  9.5km/h 11mph /  17.7km/h 54.2% 0in /  0.0mm
07:29 54.5 °F /  12.5 °C 38.5 °F /  3.6 °C 30in /  1014.5hPa SO 3.9mph /  6.3km/h 6mph /  9.7km/h 54.6% 0in /  0.0mm
07:34 54.1 °F /  12.3 °C 38.1 °F /  3.4 °C 30in /  1014.5hPa SE 2.4mph /  3.9km/h 5.9mph /  9.5km/h 54.8% 0in /  0.0mm
07:39 53.4 °F /  11.9 °C 38.1 °F /  3.4 °C 30in /  1014.5hPa SSE 2.8mph /  4.5km/h 6mph /  9.7km/h 56% 0in /  0.0mm
07:44 53.1 °F /  11.7 °C 38.1 °F /  3.4 °C 30in /  1014.5hPa SSE 3.1mph /  5km/h 5mph /  8km/h 57% 0in /  0.0mm
07:49 52.7 °F /  11.5 °C 38.3 °F /  3.5 °C 30in /  1014.5hPa SSE 3.1mph /  5km/h 5.8mph /  9.3km/h 57.8% 0in /  0.0mm
07:54 52.5 °F /  11.4 °C 38.1 °F /  3.4 °C 30in /  1014.5hPa SSE 3.1mph /  5km/h 6mph /  9.7km/h 58% 0in /  0.0mm
07:59 52.5 °F /  11.4 °C 38.1 °F /  3.4 °C 30in /  1014.5hPa SE 3.1mph /  5km/h 5.8mph /  9.3km/h 58% 0in /  0.0mm
08:04 52.5 °F /  11.4 °C 38.7 °F /  3.7 °C 30in /  1014.5hPa SSE 3.1mph /  5km/h 6mph /  9.7km/h 59% 0in /  0.0mm
08:09 52.5 °F /  11.4 °C 38.5 °F /  3.6 °C 30in /  1014.4hPa SSE 3.1mph /  5km/h 5mph /  8km/h 58.9% 0in /  0.0mm
08:14 52.5 °F /  11.4 °C 38.1 °F /  3.4 °C 30in /  1014.4hPa SE 3.1mph /  5km/h 8.1mph /  13km/h 58% 0in /  0.0mm
08:19 52.5 °F /  11.4 °C 38.3 °F /  3.5 °C 30in /  1014.7hPa SE 2.5mph /  4km/h 8mph /  12.9km/h 58.3% 0in /  0.0mm
08:24 52.5 °F /  11.4 °C 38.7 °F /  3.7 °C 30in /  1014.7hPa NO 2mph /  3.2km/h 5.8mph /  9.3km/h 59% 0in /  0.0mm
08:29 52.3 °F /  11.3 °C 38.5 °F /  3.6 °C 30in /  1014.7hPa NO 2.2mph /  3.6km/h 6mph /  9.7km/h 59% 0in /  0.0mm
08:34 52.2 °F /  11.2 °C 38.3 °F /  3.5 °C 30in /  1014.7hPa NO 2.4mph /  3.9km/h 5.2mph /  8.4km/h 59% 0in /  0.0mm
08:39 52.2 °F /  11.2 °C 38.3 °F /  3.5 °C 30in /  1014.6hPa NO 2.7mph /  4.3km/h 5.2mph /  8.4km/h 59% 0in /  0.0mm
08:44 52.3 °F /  11.3 °C 38.3 °F /  3.5 °C 30in /  1014.6hPa ONO 2.9mph /  4.7km/h 5mph /  8km/h 59% 0in /  0.0mm
08:49 52.3 °F /  11.3 °C 38.5 °F /  3.6 °C 30in /  1014.9hPa SSO 2.4mph /  3.8km/h 5.2mph /  8.4km/h 59% 0in /  0.0mm
08:54 52.7 °F /  11.5 °C 38.5 °F /  3.6 °C 30in /  1014.9hPa SE 2mph /  3.2km/h 5mph /  8km/h 58.5% 0in /  0.0mm
08:59 53.1 °F /  11.7 °C 38.7 °F /  3.7 °C 30in /  1014.9hPa Este 2.5mph /  4.1km/h 5mph /  8km/h 58% 0in /  0.0mm
09:04 53.1 °F /  11.7 °C 38.7 °F /  3.7 °C 30in /  1015.1hPa ENE 2.9mph /  4.6km/h 5mph /  8km/h 58% 0in /  0.0mm
09:09 53.1 °F /  11.7 °C 38.7 °F /  3.7 °C 30in /  1015.1hPa SE 2.3mph /  3.7km/h 6.2mph /  10km/h 58% 0in /  0.0mm
09:14 52.9 °F /  11.6 °C 38.8 °F /  3.8 °C 30in /  1015.1hPa SE 1.8mph /  2.9km/h 7.4mph /  11.9km/h 58.9% 0in /  0.0mm
09:19 52.5 °F /  11.4 °C 38.8 °F /  3.8 °C 30in /  1015.2hPa SE 3.2mph /  5.2km/h 8.1mph /  13km/h 59.2% 0in /  0.0mm
09:24 52.7 °F /  11.5 °C 39 °F /  3.9 °C 30in /  1015.2hPa SSE 4.3mph /  6.9km/h 8.1mph /  13km/h 59.7% 0in /  0.0mm
09:29 53.1 °F /  11.7 °C 39 °F /  3.9 °C 30in /  1015.2hPa SE 4.5mph /  7.3km/h 8mph /  12.9km/h 58.9% 0in /  0.0mm
09:34 53.4 °F /  11.9 °C 39 °F /  3.9 °C 30in /  1015.2hPa Este 4.7mph /  7.6km/h 6mph /  9.7km/h 58% 0in /  0.0mm
09:39 54 °F /  12.2 °C 39 °F /  3.9 °C 30in /  1015.2hPa SSO 3.5mph /  5.6km/h 5mph /  8km/h 57.3% 0in /  0.0mm
09:44 54.1 °F /  12.3 °C 39.2 °F /  4 °C 30in /  1015.2hPa SO 2.4mph /  3.9km/h 5mph /  8km/h 57% 0in /  0.0mm
09:49 54.3 °F /  12.4 °C 39.4 °F /  4.1 °C 30in /  1015.2hPa SSO 2.4mph /  3.9km/h 5mph /  8km/h 56.7% 0in /  0.0mm
09:54 54.9 °F /  12.7 °C 39.4 °F /  4.1 °C 30in /  1015.1hPa Sur 2.4mph /  3.9km/h 5mph /  8km/h 56% 0in /  0.0mm
09:59 55.2 °F /  12.9 °C 39.4 °F /  4.1 °C 30in /  1015.1hPa Oeste 2.4mph /  3.9km/h 5mph /  8km/h 55.2% 0in /  0.0mm
10:04 55.6 °F /  13.1 °C 39.6 °F /  4.2 °C 30in /  1015.2hPa Sur 2.4mph /  3.9km/h 6.9mph /  11.1km/h 54.7% 0in /  0.0mm
10:09 55.8 °F /  13.2 °C 39.4 °F /  4.1 °C 30in /  1015.2hPa Sur 2.8mph /  4.5km/h 7mph /  11.3km/h 54% 0in /  0.0mm
10:14 55.9 °F /  13.3 °C 39.6 °F /  4.2 °C 30in /  1015.2hPa SO 3.1mph /  5km/h 6mph /  9.7km/h 54% 0in /  0.0mm
10:19 55.9 °F /  13.3 °C 39.6 °F /  4.2 °C 30in /  1015.2hPa Oeste 2.7mph /  4.4km/h 5mph /  8km/h 54% 0in /  0.0mm
10:24 55.9 °F /  13.3 °C 39.2 °F /  4 °C 30in /  1015.1hPa OSO 2.4mph /  3.9km/h 5.2mph /  8.4km/h 53.3% 0in /  0.0mm
10:29 55.9 °F /  13.3 °C 39.6 °F /  4.2 °C 30in /  1015.1hPa SO 2.8mph /  4.5km/h 5.4mph /  8.7km/h 53.9% 0in /  0.0mm
10:34 56.1 °F /  13.4 °C 39.6 °F /  4.2 °C 30in /  1015.1hPa SSO 3.1mph /  5km/h 8.5mph /  13.7km/h 53.8% 0in /  0.0mm
10:39 56.1 °F /  13.4 °C 39.6 °F /  4.2 °C 30in /  1014.8hPa Sur 3.4mph /  5.4km/h 9mph /  14.5km/h 53.7% 0in /  0.0mm
10:44 56.1 °F /  13.4 °C 39.7 °F /  4.3 °C 30in /  1014.8hPa SSO 3.6mph /  5.8km/h 6mph /  9.7km/h 54% 0in /  0.0mm
10:49 56.1 °F /  13.4 °C 39.7 °F /  4.3 °C 30in /  1014.8hPa SSO 3.6mph /  5.8km/h 6.2mph /  10km/h 54% 0in /  0.0mm
10:54 56.1 °F /  13.4 °C 39.7 °F /  4.3 °C 30in /  1014.7hPa SSO 3.6mph /  5.8km/h 6mph /  9.7km/h 54% 0in /  0.0mm
10:59 56.1 °F /  13.4 °C 39.7 °F /  4.3 °C 30in /  1014.7hPa SO 3.3mph /  5.3km/h 6.9mph /  11.1km/h 54% 0in /  0.0mm
11:04 56.1 °F /  13.4 °C 39.7 °F /  4.3 °C 30in /  1014.8hPa OSO 3.1mph /  5km/h 7mph /  11.3km/h 54% 0in /  0.0mm
11:09 56.3 °F /  13.5 °C 39.9 °F /  4.4 °C 30in /  1014.8hPa OSO 3.4mph /  5.4km/h 7mph /  11.3km/h 54% 0in /  0.0mm
11:14 56.7 °F /  13.7 °C 40.1 °F /  4.5 °C 30in /  1014.8hPa SSO 3.6mph /  5.8km/h 6mph /  9.7km/h 54% 0in /  0.0mm
11:19 56.8 °F /  13.8 °C 39.9 °F /  4.4 °C 30in /  1014.8hPa SO 3.6mph /  5.8km/h 8.5mph /  13.7km/h 53% 0in /  0.0mm
11:24 57.2 °F /  14 °C 39.9 °F /  4.4 °C 30in /  1014.6hPa OSO 3.6mph /  5.8km/h 9.7mph /  15.6km/h 52.1% 0in /  0.0mm
11:29 57.6 °F /  14.2 °C 39.9 °F /  4.4 °C 30in /  1014.6hPa SO 4.5mph /  7.2km/h 11.5mph /  18.5km/h 52% 0in /  0.0mm
11:34 57.6 °F /  14.2 °C 40.1 °F /  4.5 °C 30in /  1014.6hPa Sur 5.2mph /  8.4km/h 12mph /  19.3km/h 52% 0in /  0.0mm
11:39 57.6 °F /  14.2 °C 39.7 °F /  4.3 °C 30in /  1014.5hPa Sur 5.2mph /  8.4km/h 9.2mph /  14.8km/h 51.2% 0in /  0.0mm
11:44 57.6 °F /  14.2 °C 39.6 °F /  4.2 °C 30in /  1014.5hPa Sur 5.2mph /  8.4km/h 9mph /  14.5km/h 51% 0in /  0.0mm
11:49 57.7 °F /  14.3 °C 39.7 °F /  4.3 °C 30in /  1014.5hPa Sur 5.2mph /  8.4km/h 7mph /  11.3km/h 51% 0in /  0.0mm
11:54 58.3 °F /  14.6 °C 39.9 °F /  4.4 °C 30in /  1014.4hPa Sur 5.2mph /  8.4km/h 8.5mph /  13.7km/h 50.2% 0in /  0.0mm
11:59 58.6 °F /  14.8 °C 39.9 °F /  4.4 °C 30in /  1014.4hPa SSE 4.9mph /  7.9km/h 9mph /  14.5km/h 49.8% 0in /  0.0mm
12:04 59.2 °F /  15.1 °C 40.1 °F /  4.5 °C 30in /  1014.4hPa Sur 4.7mph /  7.6km/h 8mph /  12.9km/h 49% 0in /  0.0mm
12:09 59.5 °F /  15.3 °C 40.1 °F /  4.5 °C 29.9in /  1013.9hPa SSO 4.5mph /  7.2km/h 16.1mph /  25.9km/h 48.5% 0in /  0.0mm
12:14 60.3 °F /  15.7 °C 40.3 °F /  4.6 °C 29.9in /  1013.9hPa SSO 4.3mph /  6.9km/h 16mph /  25.7km/h 47.8% 0in /  0.0mm
12:19 60.3 °F /  15.7 °C 40.3 °F /  4.6 °C 29.9in /  1013.9hPa SSO 5.5mph /  8.8km/h 13mph /  20.9km/h 47.9% 0in /  0.0mm
12:24 60.4 °F /  15.8 °C 40.3 °F /  4.6 °C 29.9in /  1013.6hPa Sur 6.4mph /  10.3km/h 11.5mph /  18.5km/h 47.4% 0in /  0.0mm
12:29 60.6 °F /  15.9 °C 40.3 °F /  4.6 °C 29.9in /  1013.6hPa SSO 5.8mph /  9.4km/h 12mph /  19.3km/h 47% 0in /  0.0mm
12:34 60.8 °F /  16 °C 40.3 °F /  4.6 °C 29.9in /  1013.6hPa SO 5.4mph /  8.7km/h 12mph /  19.3km/h 46.7% 0in /  0.0mm
12:39 61 °F /  16.1 °C 39.7 °F /  4.3 °C 29.9in /  1013.1hPa OSO 5.4mph /  8.7km/h 11.5mph /  18.5km/h 45.7% 0in /  0.0mm
12:44 61.3 °F /  16.3 °C 39.7 °F /  4.3 °C 29.9in /  1013.1hPa OSO 5.4mph /  8.7km/h 12mph /  19.3km/h 45% 0in /  0.0mm
12:49 61.5 °F /  16.4 °C 40.1 °F /  4.5 °C 29.9in /  1013.1hPa SSO 5.7mph /  9.2km/h 10.7mph /  17.2km/h 45.1% 0in /  0.0mm
12:54 61.5 °F /  16.4 °C 39.9 °F /  4.4 °C 29.9in /  1012.5hPa SO 5.9mph /  9.5km/h 11mph /  17.7km/h 45% 0in /  0.0mm
12:59 61.7 °F /  16.5 °C 40.1 °F /  4.5 °C 29.9in /  1012.5hPa OSO 4.7mph /  7.6km/h 9mph /  14.5km/h 44.9% 0in /  0.0mm
13:04 61.9 °F /  16.6 °C 40.3 °F /  4.6 °C 29.9in /  1012.5hPa OSO 4mph /  6.5km/h 7mph /  11.3km/h 45% 0in /  0.0mm
13:09 62.1 °F /  16.7 °C 40.3 °F /  4.6 °C 29.9in /  1012.3hPa Oeste 3.4mph /  5.5km/h 7.4mph /  11.9km/h 44.7% 0in /  0.0mm
13:14 62.1 °F /  16.7 °C 39.9 °F /  4.4 °C 29.9in /  1012.3hPa ONO 2.9mph /  4.7km/h 7.4mph /  11.9km/h 44% 0in /  0.0mm
13:19 62.2 °F /  16.8 °C 39.9 °F /  4.4 °C 29.9in /  1012.3hPa ONO 3mph /  4.8km/h 7mph /  11.3km/h 44% 0in /  0.0mm
13:24 62.2 °F /  16.8 °C 39.6 °F /  4.2 °C 29.9in /  1012.0hPa Oeste 3.1mph /  5km/h 8.5mph /  13.7km/h 43.2% 0in /  0.0mm
13:29 62.2 °F /  16.8 °C 39.7 °F /  4.3 °C 29.9in /  1012.0hPa Oeste 3.8mph /  6.1km/h 9mph /  14.5km/h 43.2% 0in /  0.0mm
13:34 62.4 °F /  16.9 °C 39.7 °F /  4.3 °C 29.9in /  1012.0hPa Oeste 4.3mph /  6.9km/h 8.1mph /  13km/h 43.3% 0in /  0.0mm
13:39 62.4 °F /  16.9 °C 40.3 °F /  4.6 °C 29.9in /  1011.9hPa ONO 3.9mph /  6.3km/h 8mph /  12.9km/h 44% 0in /  0.0mm
13:44 62.4 °F /  16.9 °C 40.5 °F /  4.7 °C 29.9in /  1011.9hPa NNO 3.6mph /  5.8km/h 10.2mph /  16.4km/h 44.4% 0in /  0.0mm
13:49 62.4 °F /  16.9 °C 40.5 °F /  4.7 °C 29.9in /  1011.9hPa NO 4.2mph /  6.8km/h 10.4mph /  16.7km/h 44.5% 0in /  0.0mm
13:54 62.4 °F /  16.9 °C 40.5 °F /  4.7 °C 29.9in /  1011.6hPa North 4.7mph /  7.6km/h 8mph /  12.9km/h 44.5% 0in /  0.0mm
13:59 62.4 °F /  16.9 °C 40.6 °F /  4.8 °C 29.9in /  1011.6hPa North 4.3mph /  6.9km/h 8.1mph /  13km/h 44.8% 0in /  0.0mm
14:04 62.6 °F /  17 °C 40.6 °F /  4.8 °C 29.9in /  1011.6hPa NNE 4mph /  6.5km/h 6mph /  9.7km/h 44.4% 0in /  0.0mm
14:09 63 °F /  17.2 °C 40.6 °F /  4.8 °C 29.9in /  1011.5hPa NNE 3.4mph /  5.5km/h 6.9mph /  11.1km/h 44.1% 0in /  0.0mm
14:14 63.3 °F /  17.4 °C 40.6 °F /  4.8 °C 29.9in /  1011.5hPa NE 2.9mph /  4.7km/h 7mph /  11.3km/h 43.4% 0in /  0.0mm
14:19 63.3 °F /  17.4 °C 40.6 °F /  4.8 °C 29.9in /  1011.5hPa NE 3.3mph /  5.3km/h 7mph /  11.3km/h 43.4% 0in /  0.0mm
14:24 63.7 °F /  17.6 °C 40.8 °F /  4.9 °C 29.9in /  1010.9hPa NNE 3.6mph /  5.8km/h 7mph /  11.3km/h 43% 0in /  0.0mm
14:29 64 °F /  17.8 °C 41 °F /  5 °C 29.9in /  1010.9hPa North 2.9mph /  4.7km/h 7mph /  11.3km/h 43% 0in /  0.0mm
14:34 64.4 °F /  18 °C 41 °F /  5 °C 29.9in /  1010.9hPa North 2.4mph /  3.9km/h 8.5mph /  13.7km/h 42.4% 0in /  0.0mm
14:39 64.2 °F /  17.9 °C 40.8 °F /  4.9 °C 29.8in /  1010.7hPa NNO 3.3mph /  5.3km/h 9mph /  14.5km/h 42.2% 0in /  0.0mm
14:44 64.2 °F /  17.9 °C 40.8 °F /  4.9 °C 29.8in /  1010.7hPa North 4mph /  6.5km/h 7.4mph /  11.9km/h 42.4% 0in /  0.0mm
14:49 64.2 °F /  17.9 °C 41 °F /  5 °C 29.8in /  1010.7hPa NNE 3.8mph /  6.1km/h 7mph /  11.3km/h 42.7% 0in /  0.0mm
14:54 64.2 °F /  17.9 °C 40.6 °F /  4.8 °C 29.8in /  1010.1hPa NNO 3.6mph /  5.8km/h 8.1mph /  13km/h 42% 0in /  0.0mm
14:59 64.2 °F /  17.9 °C 41 °F /  5 °C 29.8in /  1010.1hPa NNE 3.9mph /  6.2km/h 8mph /  12.9km/h 42.6% 0in /  0.0mm
15:04 64.2 °F /  17.9 °C 40.6 °F /  4.8 °C 29.8in /  1010.1hPa North 4mph /  6.5km/h 6mph /  9.7km/h 42% 0in /  0.0mm
15:09 64.4 °F /  18 °C 40.6 °F /  4.8 °C 29.8in /  1009.6hPa NNO 3.4mph /  5.4km/h 6.4mph /  10.3km/h 42% 0in /  0.0mm
15:14 64.4 °F /  18 °C 40.8 °F /  4.9 °C 29.8in /  1009.6hPa NNO 2.9mph /  4.7km/h 7mph /  11.3km/h 42% 0in /  0.0mm
15:19 64.6 °F /  18.1 °C 41 °F /  5 °C 29.8in /  1009.9hPa NNO 2.9mph /  4.7km/h 7mph /  11.3km/h 42% 0in /  0.0mm
15:24 64.8 °F /  18.2 °C 40.8 °F /  4.9 °C 29.8in /  1009.9hPa NO 2.9mph /  4.7km/h 7.6mph /  12.2km/h 41.5% 0in /  0.0mm
15:29 64.9 °F /  18.3 °C 40.6 °F /  4.8 °C 29.8in /  1009.9hPa ONO 3.3mph /  5.3km/h 8.1mph /  13km/h 41% 0in /  0.0mm
15:34 64.9 °F /  18.3 °C 40.6 °F /  4.8 °C 29.8in /  1009.9hPa NO 3.6mph /  5.8km/h 7mph /  11.3km/h 41% 0in /  0.0mm
15:39 64.9 °F /  18.3 °C 40.8 °F /  4.9 °C 29.8in /  1009.5hPa NNE 3.3mph /  5.3km/h 7mph /  11.3km/h 41% 0in /  0.0mm
15:42 65.1 °F /  18.4 °C 40.8 °F /  4.9 °C 29.8in /  1009.5hPa NE 3.1mph /  5km/h 6mph /  9.7km/h 41% 0in /  0.0mm
20:54 59.5 °F /  15.3 °C 38.1 °F /  3.4 °C 29.8in /  1009.4hPa Sur 4mph /  6.4km/h 6.9mph /  11.1km/h 45% 0in /  0.0mm
20:59 59.4 °F /  15.2 °C 38.1 °F /  3.4 °C 29.8in /  1009.4hPa Sur 4mph /  6.5km/h 7mph /  11.3km/h 45% 0in /  0.0mm
21:04 59.4 °F /  15.2 °C 37.9 °F /  3.3 °C 29.8in /  1009.4hPa Sur 4mph /  6.5km/h 7.4mph /  11.9km/h 45% 0in /  0.0mm
21:09 59.2 °F /  15.1 °C 38.3 °F /  3.5 °C 29.8in /  1009.3hPa Sur 4.4mph /  7.1km/h 8.1mph /  13km/h 45.9% 0in /  0.0mm
21:14 59 °F /  15 °C 38.1 °F /  3.4 °C 29.8in /  1009.3hPa Sur 4.7mph /  7.6km/h 8.1mph /  13km/h 46% 0in /  0.0mm
21:19 58.6 °F /  14.8 °C 37.9 °F /  3.3 °C 29.8in /  1009.3hPa Sur 5.1mph /  8.2km/h 10.4mph /  16.7km/h 46% 0in /  0.0mm
21:24 58.6 °F /  14.8 °C 37.9 °F /  3.3 °C 29.8in /  1009.2hPa Sur 5.4mph /  8.7km/h 10mph /  16.1km/h 46% 0in /  0.0mm
21:29 58.8 °F /  14.9 °C 38.1 °F /  3.4 °C 29.8in /  1009.2hPa Sur 6.3mph /  10.1km/h 9.2mph /  14.8km/h 46% 0in /  0.0mm
21:34 58.8 °F /  14.9 °C 38.1 °F /  3.4 °C 29.8in /  1009.3hPa Sur 6.9mph /  11.1km/h 9.2mph /  14.8km/h 46% 0in /  0.0mm
21:39 59 °F /  15 °C 38.1 °F /  3.4 °C 29.8in /  1009.3hPa Sur 6.3mph /  10.2km/h 9mph /  14.5km/h 46% 0in /  0.0mm
21:44 59 °F /  15 °C 38.3 °F /  3.5 °C 29.8in /  1009.3hPa Sur 5.9mph /  9.5km/h 10.4mph /  16.7km/h 46% 0in /  0.0mm
21:49 59.2 °F /  15.1 °C 38.5 °F /  3.6 °C 29.8in /  1009.4hPa Sur 6.1mph /  9.8km/h 10mph /  16.1km/h 46% 0in /  0.0mm
21:54 59.4 °F /  15.2 °C 38.5 °F /  3.6 °C 29.8in /  1009.4hPa SSE 6.2mph /  10km/h 8.1mph /  13km/h 46% 0in /  0.0mm
21:59 59.4 °F /  15.2 °C 38.5 °F /  3.6 °C 29.8in /  1009.4hPa SE 5.7mph /  9.2km/h 8.1mph /  13km/h 46% 0in /  0.0mm
22:04 59 °F /  15 °C 38.5 °F /  3.6 °C 29.8in /  1009.5hPa SE 5.4mph /  8.7km/h 8.1mph /  13km/h 46.5% 0in /  0.0mm
22:09 58.6 °F /  14.8 °C 38.5 °F /  3.6 °C 29.8in /  1009.5hPa SE 5.4mph /  8.7km/h 8.1mph /  13km/h 47% 0in /  0.0mm
22:14 58.6 °F /  14.8 °C 38.5 °F /  3.6 °C 29.8in /  1009.5hPa SE 5.4mph /  8.7km/h 8.1mph /  13km/h 47.3% 0in /  0.0mm
22:19 58.5 °F /  14.7 °C 38.7 °F /  3.7 °C 29.8in /  1009.7hPa SSE 5.3mph /  8.5km/h 8.1mph /  13km/h 47.6% 0in /  0.0mm
22:24 58.6 °F /  14.8 °C 38.5 °F /  3.6 °C 29.8in /  1009.7hPa SO 5.2mph /  8.4km/h 8.1mph /  13km/h 47% 0in /  0.0mm
22:29 58.6 °F /  14.8 °C 38.5 °F /  3.6 °C 29.8in /  1009.7hPa SO 4.7mph /  7.5km/h 10mph /  16.1km/h 47% 0in /  0.0mm
22:34 59 °F /  15 °C 38.7 °F /  3.7 °C 29.8in /  1009.7hPa SSO 4.3mph /  6.9km/h 10.4mph /  16.7km/h 46.6% 0in /  0.0mm
22:39 59.5 °F /  15.3 °C 38.7 °F /  3.7 °C 29.8in /  1009.7hPa Sur 5.4mph /  8.7km/h 13.8mph /  22.2km/h 46% 0in /  0.0mm
22:44 59.7 °F /  15.4 °C 38.3 °F /  3.5 °C 29.8in /  1009.7hPa SO 6.2mph /  10km/h 14mph /  22.5km/h 45% 0in /  0.0mm
22:49 59.7 °F /  15.4 °C 38.7 °F /  3.7 °C 29.8in /  1009.7hPa SSO 5.6mph /  9km/h 9mph /  14.5km/h 45.6% 0in /  0.0mm
22:54 59.5 °F /  15.3 °C 38.7 °F /  3.7 °C 29.8in /  1009.7hPa SSO 5.2mph /  8.4km/h 10.7mph /  17.2km/h 46% 0in /  0.0mm
22:59 59.5 °F /  15.3 °C 38.7 °F /  3.7 °C 29.8in /  1009.7hPa SSO 5.3mph /  8.6km/h 11mph /  17.7km/h 46% 0in /  0.0mm
23:04 59.5 °F /  15.3 °C 38.7 °F /  3.7 °C 29.8in /  1009.8hPa SO 5.4mph /  8.7km/h 8.1mph /  13km/h 46% 0in /  0.0mm
23:09 59.5 °F /  15.3 °C 38.8 °F /  3.8 °C 29.8in /  1009.8hPa Oeste 4.8mph /  7.7km/h 8mph /  12.9km/h 46.2% 0in /  0.0mm
23:14 59.4 °F /  15.2 °C 39 °F /  3.9 °C 29.8in /  1009.8hPa OSO 4.3mph /  6.9km/h 7mph /  11.3km/h 47% 0in /  0.0mm
23:19 59 °F /  15 °C 38.8 °F /  3.8 °C 29.8in /  1009.8hPa SSO 3.6mph /  5.8km/h 6mph /  9.7km/h 47% 0in /  0.0mm
23:24 58.6 °F /  14.8 °C 39 °F /  3.9 °C 29.8in /  1009.7hPa ONO 3.1mph /  5km/h 7.4mph /  11.9km/h 47.9% 0in /  0.0mm
23:29 58.6 °F /  14.8 °C 39 °F /  3.9 °C 29.8in /  1009.7hPa SO 3.4mph /  5.5km/h 7mph /  11.3km/h 48% 0in /  0.0mm
23:34 58.6 °F /  14.8 °C 39 °F /  3.9 °C 29.8in /  1009.7hPa SO 3.6mph /  5.8km/h 7mph /  11.3km/h 48% 0in /  0.0mm
23:39 58.6 °F /  14.8 °C 39 °F /  3.9 °C 29.8in /  1009.5hPa SSO 3.2mph /  5.1km/h 5mph /  8km/h 48% 0in /  0.0mm
23:44 58.5 °F /  14.7 °C 39.2 °F /  4 °C 29.8in /  1009.5hPa SSO 2.9mph /  4.7km/h 5.4mph /  8.7km/h 48.6% 0in /  0.0mm
23:49 58.5 °F /  14.7 °C 39.4 °F /  4.1 °C 29.8in /  1009.6hPa SSO 2.6mph /  4.2km/h 6.9mph /  11.1km/h 49% 0in /  0.0mm
23:54 58.5 °F /  14.7 °C 39.4 °F /  4.1 °C 29.8in /  1009.6hPa Sur 2.4mph /  3.9km/h 7mph /  11.3km/h 49% 0in /  0.0mm
23:59 58.5 °F /  14.7 °C 39.4 °F /  4.1 °C 29.8in /  1009.6hPa SO 2.7mph /  4.4km/h 5.2mph /  8.4km/h 49% 0in /  0.0mm
Murcia-Puente Tocinos, España
Compliments of Weather Underground - 2.5 mb

La estación de MeteoMurcia.com, publica sus datos en los siguientes proyectos:

Weather Underground PWS IMURCIAP2 Meteoclimatic www.awekas.at

W3Counter
Web Analytics